Latest Weather Observations for Trangie

IDN60801

Issued at 9:05 am EDT Sunday 26 October 2014 (issued every 30 minutes, with the page automatically refreshed every 10 minutes)

About weather observations | Map of weather stations | Latest weather observations for NSW | Other Formats
Station Details ID: 051049 Name: TRANGIE RESEARCH STATION AWS Lat: -31.99 Lon: 147.95 Height: 215.0 m
Data from the previous 72 hours. | See also: Recent months at Trangie
Date/Time
EDT
Temp
°C
App
Temp
°C
Dew
Point
Rel
Hum
%
Delta-T
°C
Wind Press
QNH
hPa
Press
MSL
hPa
Rain
since 9 am
mm
Dir
 
Spd
km/h
Gust
km/h
Spd
kts
Gust
kts
26/09:00am 28.1 26.6 8.4 29 10.8 ESE 6 9 3 5 1013.0 1012.6 3.0
26/08:30am 26.6 26.6 9.9 35 9.4 CALM 0 0 0 0 1013.0 1012.6 3.0
26/08:00am 23.8 24.5 12.1 48 6.7 CALM 0 0 0 0 1012.7 1012.2 3.0
26/07:30am 20.4 22.0 15.0 71 3.2 CALM 0 0 0 0 1012.6 1012.1 3.0
26/07:00am 17.7 18.2 12.8 73 2.8 ENE 2 7 1 4 1012.5 1012.0 3.0
26/06:30am 16.8 17.5 13.3 80 2.0 N 2 7 1 4 1012.4 1011.9 3.0
26/06:00am 17.8 17.2 11.8 68 3.3 NE 6 7 3 4 1012.3 1011.8 3.0
26/05:30am 17.9 17.1 11.7 67 3.4 NE 7 9 4 5 1012.0 1011.5 3.0
26/05:00am 18.7 18.8 10.3 58 4.6 CALM 0 0 0 0 1011.8 1011.3 3.0
26/04:30am 18.6 17.5 12.1 66 3.6 WSW 9 15 5 8 1012.1 1011.6 3.0
26/04:00am 21.2 20.2 10.4 50 5.9 NNW 6 7 3 4 1011.8 1011.3 3.0
26/03:30am 22.1 20.1 10.3 47 6.5 N 11 15 6 8 1011.9 1011.4 3.0
26/03:00am 22.7 20.6 11.1 48 6.5 N 13 20 7 11 1012.1 1011.6 3.0
26/02:30am 22.0 21.2 11.7 52 5.8 N 7 9 4 5 1012.1 1011.6 3.0
26/02:00am 23.4 22.3 10.8 45 7.1 NNE 7 9 4 5 1012.4 1011.9 3.0
26/01:30am 24.0 22.7 11.3 45 7.2 NNE 9 13 5 7 1012.8 1012.3 3.0
26/01:00am 23.4 22.6 11.8 48 6.6 NE 7 11 4 6 1013.3 1012.8 3.0
26/12:30am 23.6 22.2 12.3 49 6.5 NE 11 13 6 7 1013.4 1012.9 3.0
26/12:00am 24.3 22.6 12.6 48 6.8 NE 13 17 7 9 1013.5 1013.0 3.0
 
Date/Time
EDT
Temp
°C
App
Temp
°C
Dew
Point
Rel
Hum
%
Delta-T
°C
Wind Press
QNH
hPa
Press
MSL
hPa
Rain
since 9 am
mm
Dir
 
Spd
km/h
Gust
km/h
Spd
kts
Gust
kts
25/11:30pm 25.2 23.4 12.1 44 7.6 NNE 13 17 7 9 1013.8 1013.3 3.0
25/11:00pm 25.4 23.4 12.6 45 7.5 NE 15 17 8 9 1013.9 1013.4 3.0
25/10:30pm 25.5 24.5 13.4 47 7.1 ENE 11 15 6 8 1014.7 1014.2 3.0
25/10:00pm 26.3 25.4 12.7 43 8.0 NNE 9 13 5 7 1015.0 1014.5 3.0
25/09:30pm 23.6 25.0 16.4 64 4.4 SSW 4 9 2 5 1014.9 1014.4 3.0
25/09:00pm 23.6 23.6 15.1 59 5.1 NE 9 15 5 8 1014.6 1014.1 3.0
25/08:33pm 25.9 19.6 10.9 39 8.5 W 35 56 19 30 1015.5 1015.0 3.0
25/08:30pm 25.7 18.2 10.7 39 8.5 WSW 41 56 22 30 1015.6 1015.1 2.8
25/08:25pm 25.9 18.0 11.3 40 8.3 WSW 44 63 24 34 1014.5 1014.0 0.4
25/08:21pm 31.4 22.4 7.1 22 13.3 WSW 44 63 24 34 1014.0 1013.5 0.0
25/08:17pm 32.5 23.0 5.1 18 14.6 WSW 44 59 24 32 1013.6 1013.1 0.0
25/08:00pm 31.6 28.5 3.6 17 14.5 S 9 15 5 8 1012.5 1012.0 0.0
25/07:30pm 32.2 29.6 4.1 17 14.7 N 7 11 4 6 1011.8 1011.3 0.0
25/07:00pm 32.8 30.4 5.4 18 14.7 NNW 7 9 4 5 1011.4 1010.9 0.0
25/06:30pm 34.8 31.7 3.4 14 16.5 NNE 9 15 5 8 1011.5 1011.0 0.0
25/06:00pm 34.5 29.6 4.1 15 16.1 NE 19 28 10 15 1011.5 1011.0 0.0
25/05:30pm 36.1 30.8 -0.3 10 18.2 NW 17 22 9 12 1011.5 1011.0 0.0
25/05:00pm 37.4 31.5 -0.8 9 19.1 WNW 20 26 11 14 1011.5 1011.0 0.0
25/04:30pm 37.1 31.7 -1.0 9 18.9 W 17 39 9 21 1011.8 1011.3 0.0
25/04:00pm 38.7 32.6 0.2 9 19.7 NW 22 30 12 16 1012.0 1011.5 0.0
25/03:30pm 38.2 34.1 -0.2 9 19.5 SW 11 19 6 10 1012.5 1012.0 0.0
25/03:00pm 37.8 34.4 -0.5 9 19.3 SW 7 15 4 8 1012.9 1012.5 0.0
25/02:30pm 37.0 33.2 -1.1 9 18.9 NNW 9 19 5 10 1013.6 1013.1 0.0
25/02:00pm 37.9 33.0 -0.4 9 19.3 WNW 15 26 8 14 1014.1 1013.6 0.0
25/01:30pm 36.7 31.9 0.1 10 18.5 WNW 15 22 8 12 1014.6 1014.1 0.0
25/01:00pm 36.3 32.2 -0.2 10 18.3 E 11 20 6 11 1015.0 1014.5 0.0
25/12:30pm 35.6 31.8 -0.7 10 18.0 N 9 15 5 8 1015.5 1015.0 0.0
25/12:00pm 35.3 31.7 0.4 11 17.5 NW 9 13 5 7 1016.0 1015.5 0.0
25/11:30am 34.6 30.7 -1.4 10 17.5 SE 9 15 5 8 1016.5 1016.0 0.0
25/11:00am 33.6 30.3 0.3 12 16.5 E 7 15 4 8 1016.9 1016.5 0.0
25/10:30am 32.5 28.4 -0.5 12 16.1 E 11 17 6 9 1017.1 1016.7 0.0
25/10:00am 32.1 28.1 0.2 13 15.6 ENE 11 15 6 8 1017.3 1016.9 0.0
25/09:30am 30.4 26.2 1.8 16 14.3 ENE 13 17 7 9 1017.1 1016.7 0.0
25/09:00am 29.3 26.3 4.0 20 13.0 ENE 9 13 5 7 1017.2 1016.8 0.0
25/08:30am 27.2 24.3 4.9 24 11.5 E 9 13 5 7 1016.9 1016.5 0.0
25/08:00am 24.7 22.5 5.5 29 9.8 E 6 9 3 5 1016.9 1016.5 0.0
25/07:30am 19.5 18.3 4.8 38 7.2 CALM 0 0 0 0 1017.0 1016.6 0.0
25/07:00am 14.8 13.1 3.9 48 5.0 E 2 6 1 3 1016.9 1016.5 0.0
25/06:30am 14.9 12.2 3.7 47 5.2 E 7 9 4 5 1016.5 1016.0 0.0
25/06:00am 15.4 14.1 3.9 46 5.4 CALM 0 0 0 0 1016.3 1015.8 0.0
25/05:30am 17.2 15.8 3.8 41 6.3 CALM 0 0 0 0 1015.8 1015.3 0.0
25/05:00am 17.9 16.5 3.8 39 6.7 CALM 0 0 0 0 1015.4 1014.9 0.0
25/04:30am 17.4 16.0 3.7 40 6.5 CALM 0 0 0 0 1015.3 1014.8 0.0
25/04:00am 18.7 17.3 3.7 37 7.1 CALM 0 0 0 0 1015.2 1014.7 0.0
25/03:30am 19.3 16.7 3.1 34 7.7 S 6 7 3 4 1015.2 1014.7 0.0
25/03:00am 19.6 16.8 2.9 33 7.9 S 7 11 4 6 1015.3 1014.8 0.0
25/02:30am 20.3 17.5 3.1 32 8.2 SSW 7 9 4 5 1015.5 1015.0 0.0
25/02:00am 20.9 18.2 3.6 32 8.3 S 7 9 4 5 1015.6 1015.1 0.0
25/01:30am 20.8 18.0 3.1 31 8.5 SSW 7 11 4 6 1015.8 1015.3 0.0
25/01:00am 21.2 18.4 3.0 30 8.7 SW 7 9 4 5 1015.9 1015.4 0.0
25/12:30am 22.3 18.4 3.4 29 9.2 WSW 13 13 7 7 1015.9 1015.4 0.0
25/12:00am 22.7 19.2 3.3 28 9.4 WSW 11 13 6 7 1015.7 1015.2 0.0
 
Date/Time
EDT
Temp
°C
App
Temp
°C
Dew
Point
Rel
Hum
%
Delta-T
°C
Wind Press
QNH
hPa
Press
MSL
hPa
Rain
since 9 am
mm
Dir
 
Spd
km/h
Gust
km/h
Spd
kts
Gust
kts
24/11:30pm 23.0 19.5 3.5 28 9.5 W 11 11 6 6 1015.5 1015.0 0.0
24/11:00pm 24.1 21.0 3.4 26 10.2 W 9 11 5 6 1015.4 1014.9 0.0
24/10:30pm 25.3 22.5 3.3 24 10.9 W 7 9 4 5 1015.2 1014.7 0.0
24/10:00pm 25.8 22.7 3.7 24 11.1 W 9 13 5 7 1015.2 1014.7 0.0
24/09:30pm 26.8 22.8 2.7 21 11.9 WSW 13 17 7 9 1014.9 1014.4 0.0
24/09:00pm 28.5 24.6 3.4 20 12.7 WNW 13 15 7 8 1014.3 1013.8 0.0
24/08:30pm 29.7 25.7 2.9 18 13.6 WNW 13 17 7 9 1013.9 1013.4 0.0
24/08:00pm 31.5 26.6 1.8 15 14.9 W 17 20 9 11 1013.6 1013.1 0.0
24/07:30pm 32.5 27.4 0.6 13 15.8 W 17 24 9 13 1012.9 1012.5 0.0
24/07:00pm 33.7 24.6 -0.8 11 16.8 WSW 37 48 20 26 1012.5 1012.0 0.0
24/06:30pm 34.6 25.0 -1.4 10 17.5 WSW 39 57 21 31 1011.7 1011.2 0.0
24/06:13pm 35.7 25.8 -3.6 8 18.6 WSW 39 61 21 33 1011.4 1010.9 0.0
24/06:00pm 35.9 28.0 -5.2 7 19.0 W 28 41 15 22 1011.1 1010.6 0.0
24/05:30pm 36.3 30.3 -3.2 8 18.9 WNW 19 26 10 14 1010.8 1010.3 0.0
24/05:00pm 37.9 29.6 -2.0 8 19.6 W 32 37 17 20 1010.7 1010.2 0.0
24/04:30pm 36.8 32.0 2.8 12 17.9 W 17 26 9 14 1010.9 1010.4 0.0
24/04:00pm 37.1 30.3 3.0 12 18.1 NW 28 43 15 23 1011.4 1010.9 0.0
24/03:30pm 36.9 31.8 6.0 15 17.1 N 22 35 12 19 1011.9 1011.4 0.0
24/03:00pm 36.8 30.7 4.9 14 17.4 NNW 26 41 14 22 1012.5 1012.0 0.0
24/02:30pm 37.0 31.0 7.0 16 16.9 NNW 28 46 15 25 1013.1 1012.7 0.0
24/02:29pm 37.1 31.1 7.1 16 16.9 NNW 28 46 15 25 1013.1 1012.7 0.0
24/02:00pm 35.2 28.3 7.3 18 15.6 NNW 33 44 18 24 1014.0 1013.5 0.0
24/01:30pm 34.8 28.6 7.8 19 15.2 N 30 54 16 29 1014.4 1013.9 0.0
24/01:26pm 35.3 28.6 7.4 18 15.7 NNW 32 54 17 29 1014.3 1013.8 0.0
24/01:00pm 34.3 27.6 7.4 19 15.0 NNW 32 44 17 24 1014.6 1014.1 0.0
24/12:30pm 33.9 27.3 7.8 20 14.6 N 32 52 17 28 1015.1 1014.6 0.0
24/12:00pm 33.0 27.1 9.1 23 13.6 N 30 50 16 27 1015.8 1015.3 0.0
24/11:43am 32.8 27.4 9.6 24 13.3 N 28 46 15 25 1016.1 1015.6 0.0
24/11:30am 31.4 25.3 8.4 24 12.9 N 30 43 16 23 1016.4 1015.9 0.0
24/11:17am 31.3 25.7 8.9 25 12.6 N 28 48 15 26 1016.8 1016.3 0.0
24/11:00am 31.6 26.0 8.6 24 12.9 N 28 41 15 22 1017.0 1016.6 0.0
24/10:30am 30.4 24.8 8.7 26 12.1 N 28 43 15 23 1017.2 1016.8 0.0
24/10:00am 29.5 24.9 9.6 29 11.2 NNE 24 39 13 21 1017.6 1017.2 0.0
24/09:30am 27.7 22.7 9.5 32 10.2 NNE 26 39 14 21 1017.9 1017.5 0.0
24/09:00am 26.5 21.9 9.8 35 9.3 NNE 24 35 13 19 1018.2 1017.7 0.0
24/08:30am 25.5 21.0 10.1 38 8.6 NNE 24 39 13 21 1018.2 1017.7 0.0
24/08:00am 24.5 21.1 10.4 41 7.9 NE 19 32 10 17 1018.4 1017.9 0.0
24/07:30am 22.7 19.7 10.5 46 6.8 NE 17 28 9 15 1018.6 1018.1 0.0
24/07:00am 21.7 19.7 10.2 48 6.3 E 11 17 6 9 1018.6 1018.1 0.0
24/06:30am 21.1 19.5 10.3 50 5.9 ESE 9 17 5 9 1018.6 1018.1 0.0
24/06:00am 21.7 19.3 9.9 47 6.4 NE 13 20 7 11 1017.4 1017.0 0.0
24/05:30am 22.1 19.0 10.3 47 6.5 NNE 17 26 9 14 1017.1 1016.7 0.0
24/05:00am 21.9 19.7 10.7 49 6.2 NE 13 20 7 11 1016.8 1016.3 0.0
24/04:30am 21.6 20.6 10.4 49 6.2 ESE 6 9 3 5 1017.6 1017.2 0.0
24/04:00am 21.8 19.5 10.6 49 6.2 NNE 13 20 7 11 1016.9 1016.5 0.0
24/03:30am 21.7 20.1 10.2 48 6.3 NE 9 13 5 7 1016.4 1015.9 0.0
24/03:00am 21.9 19.1 10.1 47 6.5 NE 15 20 8 11 1016.2 1015.7 0.0
24/02:30am 22.1 20.0 9.9 46 6.7 ENE 11 17 6 9 1016.6 1016.1 0.0
24/02:00am 22.8 19.6 9.9 44 7.1 E 17 24 9 13 1016.7 1016.2 0.0
24/01:30am 23.9 21.9 8.7 38 8.2 E 9 17 5 9 1017.1 1016.7 0.0
24/01:00am 25.2 22.1 7.3 32 9.5 E 13 20 7 11 1017.2 1016.8 0.0
24/12:30am 24.8 23.0 7.9 34 9.1 ESE 7 11 4 6 1017.0 1016.6 0.0
24/12:00am 24.1 22.3 8.1 36 8.6 E 7 9 4 5 1016.8 1016.3 0.0
 
Date/Time
EDT
Temp
°C
App
Temp
°C
Dew
Point
Rel
Hum
%
Delta-T
°C
Wind Press
QNH
hPa
Press
MSL
hPa
Rain
since 9 am
mm
Dir
 
Spd
km/h
Gust
km/h
Spd
kts
Gust
kts
23/11:30pm 24.8 22.6 7.9 34 9.1 ENE 9 11 5 6 1016.6 1016.1 0.0
23/11:00pm 24.9 22.7 8.0 34 9.1 ENE 9 13 5 7 1016.7 1016.2 0.0
23/10:30pm 24.6 22.7 7.7 34 9.0 ENE 7 11 4 6 1016.8 1016.3 0.0
23/10:00pm 24.9 22.6 7.5 33 9.3 ENE 9 11 5 6 1016.6 1016.1 0.0
23/09:30pm 27.0 24.7 7.5 29 10.5 N 9 11 5 6 1016.6 1016.1 0.0
23/09:00pm 28.3 24.4 7.0 26 11.4 NW 17 20 9 11 1016.6 1016.1 0.0
23/08:30pm 26.7 24.7 7.2 29 10.4 N 7 11 4 6 1016.3 1015.8 0.0
23/08:00pm 26.8 25.4 7.3 29 10.5 N 4 7 2 4 1015.9 1015.4 0.0
23/07:30pm 29.4 27.6 7.3 25 12.0 NNE 6 7 3 4 1015.6 1015.1 0.0
23/07:00pm 30.2 29.5 6.8 23 12.7 CALM 0 0 0 0 1015.3 1014.8 0.0
23/06:30pm 32.5 30.0 6.7 20 14.1 N 9 13 5 7 1015.1 1014.6 0.0
23/06:00pm 33.7 32.0 6.1 18 15.1 NW 4 7 2 4 1014.9 1014.4 0.0
23/05:30pm 32.8 30.1 5.4 18 14.7 SSE 9 15 5 8 1014.9 1014.4 0.0
23/05:00pm 33.7 30.3 6.1 18 15.1 NW 13 24 7 13 1015.0 1014.5 0.0
23/04:30pm 34.3 31.8 6.6 18 15.3 W 9 13 5 7 1014.9 1014.4 0.0
23/04:00pm 33.6 31.5 6.0 18 15.0 N 6 17 3 9 1015.4 1014.9 0.0
23/03:30pm 34.1 31.9 6.4 18 15.2 NW 7 13 4 7 1015.7 1015.2 0.0
23/03:00pm 32.7 30.5 6.1 19 14.4 N 7 13 4 7 1016.2 1015.7 0.0
23/02:30pm 32.3 30.2 6.5 20 14.1 N 7 13 4 7 1016.7 1016.2 0.0
23/02:00pm 32.2 30.0 6.4 20 14.0 NE 7 17 4 9 1017.2 1016.8 0.0
23/01:30pm 32.1 29.9 7.7 22 13.5 ENE 9 19 5 10 1017.7 1017.3 0.0
23/01:00pm 31.2 28.6 7.6 23 13.0 WNW 11 19 6 10 1018.2 1017.7 0.0
23/12:30pm 31.2 28.8 8.8 25 12.6 NNW 11 19 6 10 1018.6 1018.1 0.0
23/12:00pm 28.3 26.0 10.5 33 10.1 NE 13 19 7 10 1019.2 1018.7 0.0
23/11:30am 26.1 23.7 9.9 36 9.1 N 13 19 7 10 1019.7 1019.2 0.0
23/11:00am 26.2 22.8 9.1 34 9.4 N 17 22 9 12 1019.7 1019.2 0.0
23/10:30am 26.3 23.7 9.2 34 9.5 N 13 15 7 8 1020.0 1019.5 0.0
23/10:00am 25.4 23.4 10.1 38 8.5 E 11 15 6 8 1020.1 1019.6 0.0
23/09:30am 23.7 22.4 11.1 45 7.1 E 9 19 5 10 1020.2 1019.7 0.0

Other Formats:

Comma delimited format used in spreadsheet applications
http://www.bom.gov.au/fwo/IDN60801/IDN60801.95710.axf

JavaScript Object Notation format (JSON) in row-major order
http://www.bom.gov.au/fwo/IDN60801/IDN60801.95710.json